sensor_id;sensor_type;location;lat;lon;timestamp;P1;durP1;ratioP1;P2;durP2;ratioP2
53267;SDS011;39156;51.176;6.738;2023-05-10T00:01:37;41.80;;;39.30;;
53267;SDS011;39156;51.176;6.738;2023-05-10T00:04:06;40.70;;;38.22;;
53267;SDS011;39156;51.176;6.738;2023-05-10T00:06:32;40.27;;;37.77;;
53267;SDS011;39156;51.176;6.738;2023-05-10T00:08:58;42.70;;;40.10;;
53267;SDS011;39156;51.176;6.738;2023-05-10T00:11:24;41.72;;;39.33;;
53267;SDS011;39156;51.176;6.738;2023-05-10T00:13:49;40.47;;;38.08;;
53267;SDS011;39156;51.176;6.738;2023-05-10T00:16:15;41.07;;;38.77;;
53267;SDS011;39156;51.176;6.738;2023-05-10T00:18:41;40.65;;;38.15;;
53267;SDS011;39156;51.176;6.738;2023-05-10T00:21:06;43.50;;;40.93;;
53267;SDS011;39156;51.176;6.738;2023-05-10T00:23:32;40.72;;;38.28;;
53267;SDS011;39156;51.176;6.738;2023-05-10T00:25:58;40.22;;;37.90;;
53267;SDS011;39156;51.176;6.738;2023-05-10T00:28:23;43.20;;;40.65;;
53267;SDS011;39156;51.176;6.738;2023-05-10T00:30:49;42.13;;;39.65;;
53267;SDS011;39156;51.176;6.738;2023-05-10T00:33:15;41.78;;;39.33;;
53267;SDS011;39156;51.176;6.738;2023-05-10T00:35:40;41.22;;;38.80;;
53267;SDS011;39156;51.176;6.738;2023-05-10T00:38:06;43.50;;;40.90;;
53267;SDS011;39156;51.176;6.738;2023-05-10T00:40:31;42.83;;;40.23;;
53267;SDS011;39156;51.176;6.738;2023-05-10T00:42:57;41.97;;;39.57;;
53267;SDS011;39156;51.176;6.738;2023-05-10T00:45:25;40.42;;;38.10;;
53267;SDS011;39156;51.176;6.738;2023-05-10T00:47:51;40.78;;;38.33;;
53267;SDS011;39156;51.176;6.738;2023-05-10T00:50:20;38.13;;;35.83;;
53267;SDS011;39156;51.176;6.738;2023-05-10T00:52:47;39.92;;;37.40;;
53267;SDS011;39156;51.176;6.738;2023-05-10T00:55:13;40.67;;;38.28;;
53267;SDS011;39156;51.176;6.738;2023-05-10T00:57:38;43.38;;;40.70;;
53267;SDS011;39156;51.176;6.738;2023-05-10T01:00:05;38.90;;;36.60;;
53267;SDS011;39156;51.176;6.738;2023-05-10T01:02:32;42.65;;;40.22;;
53267;SDS011;39156;51.176;6.738;2023-05-10T01:04:59;41.00;;;38.67;;
53267;SDS011;39156;51.176;6.738;2023-05-10T01:07:27;40.05;;;37.75;;
53267;SDS011;39156;51.176;6.738;2023-05-10T01:09:53;40.67;;;38.28;;
53267;SDS011;39156;51.176;6.738;2023-05-10T01:12:19;36.20;;;34.10;;
53267;SDS011;39156;51.176;6.738;2023-05-10T01:14:45;39.23;;;36.83;;
53267;SDS011;39156;51.176;6.738;2023-05-10T01:17:10;38.83;;;36.63;;
53267;SDS011;39156;51.176;6.738;2023-05-10T01:19:37;39.88;;;37.55;;
53267;SDS011;39156;51.176;6.738;2023-05-10T01:39:06;39.30;;;37.03;;
53267;SDS011;39156;51.176;6.738;2023-05-10T01:41:59;42.55;;;40.05;;
53267;SDS011;39156;51.176;6.738;2023-05-10T01:44:41;41.15;;;38.80;;
53267;SDS011;39156;51.176;6.738;2023-05-10T01:50:03;38.30;;;36.08;;
53267;SDS011;39156;51.176;6.738;2023-05-10T01:52:33;41.63;;;39.22;;
53267;SDS011;39156;51.176;6.738;2023-05-10T01:55:09;40.50;;;38.10;;
53267;SDS011;39156;51.176;6.738;2023-05-10T01:57:42;39.70;;;37.45;;
53267;SDS011;39156;51.176;6.738;2023-05-10T02:00:10;39.95;;;37.65;;
53267;SDS011;39156;51.176;6.738;2023-05-10T02:02:39;39.20;;;37.00;;
53267;SDS011;39156;51.176;6.738;2023-05-10T02:05:09;39.60;;;37.40;;
53267;SDS011;39156;51.176;6.738;2023-05-10T02:07:38;38.83;;;36.60;;
53267;SDS011;39156;51.176;6.738;2023-05-10T02:10:05;39.42;;;37.13;;
53267;SDS011;39156;51.176;6.738;2023-05-10T02:12:36;38.28;;;36.15;;
53267;SDS011;39156;51.176;6.738;2023-05-10T02:15:06;39.70;;;37.40;;
53267;SDS011;39156;51.176;6.738;2023-05-10T02:17:34;38.03;;;35.92;;
53267;SDS011;39156;51.176;6.738;2023-05-10T02:20:02;38.15;;;36.05;;
53267;SDS011;39156;51.176;6.738;2023-05-10T02:22:30;37.95;;;35.75;;
53267;SDS011;39156;51.176;6.738;2023-05-10T02:24:57;39.80;;;37.53;;
53267;SDS011;39156;51.176;6.738;2023-05-10T02:27:24;37.80;;;35.60;;
53267;SDS011;39156;51.176;6.738;2023-05-10T02:29:52;38.55;;;36.40;;
53267;SDS011;39156;51.176;6.738;2023-05-10T02:32:19;37.13;;;35.03;;
53267;SDS011;39156;51.176;6.738;2023-05-10T02:34:47;39.95;;;37.45;;
53267;SDS011;39156;51.176;6.738;2023-05-10T02:37:17;36.63;;;34.53;;
53267;SDS011;39156;51.176;6.738;2023-05-10T02:39:49;39.33;;;37.17;;
53267;SDS011;39156;51.176;6.738;2023-05-10T02:42:18;39.50;;;37.20;;
53267;SDS011;39156;51.176;6.738;2023-05-10T02:44:45;37.63;;;35.42;;
53267;SDS011;39156;51.176;6.738;2023-05-10T02:47:14;36.63;;;34.63;;
53267;SDS011;39156;51.176;6.738;2023-05-10T02:49:40;38.45;;;36.28;;
53267;SDS011;39156;51.176;6.738;2023-05-10T02:52:06;37.25;;;35.15;;
53267;SDS011;39156;51.176;6.738;2023-05-10T02:54:35;38.17;;;35.90;;
53267;SDS011;39156;51.176;6.738;2023-05-10T02:57:09;38.28;;;36.08;;
53267;SDS011;39156;51.176;6.738;2023-05-10T02:59:41;39.42;;;37.13;;
53267;SDS011;39156;51.176;6.738;2023-05-10T03:02:10;38.08;;;35.95;;
53267;SDS011;39156;51.176;6.738;2023-05-10T03:04:37;36.53;;;34.45;;
53267;SDS011;39156;51.176;6.738;2023-05-10T03:07:03;37.58;;;35.25;;
53267;SDS011;39156;51.176;6.738;2023-05-10T03:09:29;36.90;;;34.88;;
53267;SDS011;39156;51.176;6.738;2023-05-10T03:12:00;36.72;;;34.58;;
53267;SDS011;39156;51.176;6.738;2023-05-10T03:14:45;38.63;;;36.45;;
53267;SDS011;39156;51.176;6.738;2023-05-10T03:20:11;36.92;;;34.90;;
53267;SDS011;39156;51.176;6.738;2023-05-10T03:22:47;37.65;;;35.55;;
53267;SDS011;39156;51.176;6.738;2023-05-10T03:25:21;39.03;;;36.83;;
53267;SDS011;39156;51.176;6.738;2023-05-10T03:30:14;38.65;;;36.45;;
53267;SDS011;39156;51.176;6.738;2023-05-10T03:32:40;38.97;;;36.58;;
53267;SDS011;39156;51.176;6.738;2023-05-10T03:35:07;38.20;;;35.70;;
53267;SDS011;39156;51.176;6.738;2023-05-10T03:37:33;39.15;;;36.95;;
53267;SDS011;39156;51.176;6.738;2023-05-10T03:39:59;38.80;;;36.65;;
53267;SDS011;39156;51.176;6.738;2023-05-10T03:42:26;39.75;;;37.38;;
53267;SDS011;39156;51.176;6.738;2023-05-10T03:44:51;40.13;;;37.63;;
53267;SDS011;39156;51.176;6.738;2023-05-10T03:47:17;39.67;;;37.28;;
53267;SDS011;39156;51.176;6.738;2023-05-10T03:49:43;38.25;;;36.15;;
53267;SDS011;39156;51.176;6.738;2023-05-10T03:52:08;38.83;;;36.43;;
53267;SDS011;39156;51.176;6.738;2023-05-10T03:54:34;39.67;;;37.38;;
53267;SDS011;39156;51.176;6.738;2023-05-10T03:57:00;42.20;;;39.77;;
53267;SDS011;39156;51.176;6.738;2023-05-10T03:59:25;41.90;;;39.43;;
53267;SDS011;39156;51.176;6.738;2023-05-10T04:01:51;40.05;;;37.70;;
53267;SDS011;39156;51.176;6.738;2023-05-10T04:04:17;41.28;;;38.95;;
53267;SDS011;39156;51.176;6.738;2023-05-10T04:06:43;41.85;;;39.15;;
53267;SDS011;39156;51.176;6.738;2023-05-10T04:09:10;41.22;;;38.53;;
53267;SDS011;39156;51.176;6.738;2023-05-10T04:11:35;41.13;;;38.25;;
53267;SDS011;39156;51.176;6.738;2023-05-10T04:14:01;40.53;;;38.03;;
53267;SDS011;39156;51.176;6.738;2023-05-10T04:16:27;45.05;;;41.80;;
53267;SDS011;39156;51.176;6.738;2023-05-10T04:18:53;45.10;;;42.40;;
53267;SDS011;39156;51.176;6.738;2023-05-10T04:21:19;44.22;;;41.40;;
53267;SDS011;39156;51.176;6.738;2023-05-10T04:23:45;43.05;;;40.17;;
53267;SDS011;39156;51.176;6.738;2023-05-10T04:26:10;42.42;;;39.72;;
53267;SDS011;39156;51.176;6.738;2023-05-10T04:28:36;44.80;;;41.87;;
53267;SDS011;39156;51.176;6.738;2023-05-10T04:31:06;45.77;;;42.60;;
53267;SDS011;39156;51.176;6.738;2023-05-10T04:33:33;45.50;;;42.53;;
53267;SDS011;39156;51.176;6.738;2023-05-10T04:36:00;44.67;;;41.58;;
53267;SDS011;39156;51.176;6.738;2023-05-10T04:38:26;44.03;;;41.13;;
53267;SDS011;39156;51.176;6.738;2023-05-10T04:40:52;45.27;;;42.23;;
53267;SDS011;39156;51.176;6.738;2023-05-10T04:43:18;45.40;;;42.30;;
53267;SDS011;39156;51.176;6.738;2023-05-10T04:45:45;47.38;;;44.20;;
53267;SDS011;39156;51.176;6.738;2023-05-10T04:48:11;47.25;;;43.95;;
53267;SDS011;39156;51.176;6.738;2023-05-10T04:50:37;49.17;;;45.73;;
53267;SDS011;39156;51.176;6.738;2023-05-10T04:55:30;45.33;;;42.30;;
53267;SDS011;39156;51.176;6.738;2023-05-10T04:57:55;46.35;;;43.25;;
53267;SDS011;39156;51.176;6.738;2023-05-10T05:00:22;46.95;;;43.55;;
53267;SDS011;39156;51.176;6.738;2023-05-10T05:02:48;48.47;;;45.28;;
53267;SDS011;39156;51.176;6.738;2023-05-10T05:05:14;48.83;;;45.23;;
53267;SDS011;39156;51.176;6.738;2023-05-10T05:07:39;46.70;;;43.57;;
53267;SDS011;39156;51.176;6.738;2023-05-10T05:10:06;49.03;;;45.67;;
53267;SDS011;39156;51.176;6.738;2023-05-10T05:12:33;45.45;;;42.28;;
53267;SDS011;39156;51.176;6.738;2023-05-10T05:14:59;47.72;;;43.88;;
53267;SDS011;39156;51.176;6.738;2023-05-10T05:17:24;45.27;;;42.37;;
53267;SDS011;39156;51.176;6.738;2023-05-10T05:19:50;45.43;;;42.33;;
53267;SDS011;39156;51.176;6.738;2023-05-10T05:22:16;43.80;;;40.90;;
53267;SDS011;39156;51.176;6.738;2023-05-10T05:24:42;43.70;;;40.92;;
53267;SDS011;39156;51.176;6.738;2023-05-10T05:27:07;42.33;;;39.53;;
53267;SDS011;39156;51.176;6.738;2023-05-10T05:29:33;43.73;;;41.13;;
53267;SDS011;39156;51.176;6.738;2023-05-10T05:31:59;41.13;;;38.37;;
53267;SDS011;39156;51.176;6.738;2023-05-10T05:34:25;43.80;;;40.83;;
53267;SDS011;39156;51.176;6.738;2023-05-10T05:36:50;43.70;;;40.83;;
53267;SDS011;39156;51.176;6.738;2023-05-10T05:39:16;42.30;;;39.25;;
53267;SDS011;39156;51.176;6.738;2023-05-10T05:41:42;39.72;;;37.17;;
53267;SDS011;39156;51.176;6.738;2023-05-10T05:44:08;41.40;;;38.57;;
53267;SDS011;39156;51.176;6.738;2023-05-10T05:46:34;42.28;;;39.50;;
53267;SDS011;39156;51.176;6.738;2023-05-10T05:49:00;43.40;;;40.25;;
53267;SDS011;39156;51.176;6.738;2023-05-10T05:51:25;42.43;;;39.50;;
53267;SDS011;39156;51.176;6.738;2023-05-10T05:53:51;42.00;;;39.23;;
53267;SDS011;39156;51.176;6.738;2023-05-10T05:56:16;40.80;;;38.00;;
53267;SDS011;39156;51.176;6.738;2023-05-10T05:58:48;41.38;;;38.75;;
53267;SDS011;39156;51.176;6.738;2023-05-10T06:01:17;41.83;;;38.92;;
53267;SDS011;39156;51.176;6.738;2023-05-10T06:03:43;43.77;;;40.70;;
53267;SDS011;39156;51.176;6.738;2023-05-10T06:06:09;40.95;;;38.38;;
53267;SDS011;39156;51.176;6.738;2023-05-10T06:08:34;42.63;;;39.67;;
53267;SDS011;39156;51.176;6.738;2023-05-10T06:11:00;43.80;;;40.87;;
53267;SDS011;39156;51.176;6.738;2023-05-10T06:13:26;42.83;;;39.97;;
53267;SDS011;39156;51.176;6.738;2023-05-10T06:15:57;44.08;;;41.17;;
53267;SDS011;39156;51.176;6.738;2023-05-10T06:18:23;41.92;;;38.97;;
53267;SDS011;39156;51.176;6.738;2023-05-10T06:20:49;43.30;;;40.23;;
53267;SDS011;39156;51.176;6.738;2023-05-10T06:23:16;42.13;;;39.08;;
53267;SDS011;39156;51.176;6.738;2023-05-10T06:25:42;44.75;;;41.65;;
53267;SDS011;39156;51.176;6.738;2023-05-10T06:28:08;43.17;;;40.08;;
53267;SDS011;39156;51.176;6.738;2023-05-10T06:30:33;43.95;;;41.08;;
53267;SDS011;39156;51.176;6.738;2023-05-10T06:33:01;43.85;;;40.88;;
53267;SDS011;39156;51.176;6.738;2023-05-10T06:35:27;43.37;;;40.53;;
53267;SDS011;39156;51.176;6.738;2023-05-10T06:37:53;42.95;;;40.15;;
53267;SDS011;39156;51.176;6.738;2023-05-10T06:40:19;44.38;;;41.38;;
53267;SDS011;39156;51.176;6.738;2023-05-10T06:42:46;43.17;;;40.20;;
53267;SDS011;39156;51.176;6.738;2023-05-10T06:47:39;45.88;;;42.78;;
53267;SDS011;39156;51.176;6.738;2023-05-10T06:50:06;45.28;;;42.10;;
53267;SDS011;39156;51.176;6.738;2023-05-10T06:52:36;42.97;;;39.88;;
53267;SDS011;39156;51.176;6.738;2023-05-10T06:55:02;44.88;;;41.53;;
53267;SDS011;39156;51.176;6.738;2023-05-10T06:57:30;44.72;;;41.53;;
53267;SDS011;39156;51.176;6.738;2023-05-10T06:59:56;43.97;;;40.88;;
53267;SDS011;39156;51.176;6.738;2023-05-10T07:02:22;43.40;;;40.45;;
53267;SDS011;39156;51.176;6.738;2023-05-10T07:04:48;43.80;;;40.00;;
53267;SDS011;39156;51.176;6.738;2023-05-10T07:07:14;42.97;;;39.93;;
53267;SDS011;39156;51.176;6.738;2023-05-10T07:09:40;42.23;;;39.47;;
53267;SDS011;39156;51.176;6.738;2023-05-10T07:12:05;42.43;;;39.53;;
53267;SDS011;39156;51.176;6.738;2023-05-10T07:14:31;42.00;;;39.00;;
53267;SDS011;39156;51.176;6.738;2023-05-10T07:16:57;42.23;;;39.23;;
53267;SDS011;39156;51.176;6.738;2023-05-10T07:19:22;44.67;;;41.70;;
53267;SDS011;39156;51.176;6.738;2023-05-10T07:21:48;41.13;;;38.43;;
53267;SDS011;39156;51.176;6.738;2023-05-10T07:24:15;41.55;;;38.67;;
53267;SDS011;39156;51.176;6.738;2023-05-10T07:26:41;40.97;;;38.33;;
53267;SDS011;39156;51.176;6.738;2023-05-10T07:29:07;40.93;;;37.97;;
53267;SDS011;39156;51.176;6.738;2023-05-10T07:31:32;40.43;;;37.67;;
53267;SDS011;39156;51.176;6.738;2023-05-10T07:33:58;39.87;;;37.23;;
53267;SDS011;39156;51.176;6.738;2023-05-10T07:36:24;41.37;;;38.57;;
53267;SDS011;39156;51.176;6.738;2023-05-10T07:38:49;41.07;;;38.10;;
53267;SDS011;39156;51.176;6.738;2023-05-10T07:41:15;41.13;;;38.37;;
53267;SDS011;39156;51.176;6.738;2023-05-10T07:43:41;42.13;;;39.00;;
53267;SDS011;39156;51.176;6.738;2023-05-10T07:46:06;42.03;;;39.30;;
53267;SDS011;39156;51.176;6.738;2023-05-10T07:48:32;43.77;;;40.33;;
53267;SDS011;39156;51.176;6.738;2023-05-10T07:50:58;45.37;;;42.17;;
53267;SDS011;39156;51.176;6.738;2023-05-10T07:53:24;43.57;;;40.47;;
53267;SDS011;39156;51.176;6.738;2023-05-10T07:55:51;46.92;;;43.75;;
53267;SDS011;39156;51.176;6.738;2023-05-10T07:58:24;46.42;;;43.08;;
53267;SDS011;39156;51.176;6.738;2023-05-10T08:00:50;48.23;;;44.33;;
53267;SDS011;39156;51.176;6.738;2023-05-10T08:03:16;48.87;;;45.30;;
53267;SDS011;39156;51.176;6.738;2023-05-10T08:05:41;49.17;;;45.67;;
53267;SDS011;39156;51.176;6.738;2023-05-10T08:08:07;48.20;;;44.63;;
53267;SDS011;39156;51.176;6.738;2023-05-10T08:10:33;51.03;;;47.03;;
53267;SDS011;39156;51.176;6.738;2023-05-10T08:12:58;50.87;;;46.63;;
53267;SDS011;39156;51.176;6.738;2023-05-10T08:15:24;49.43;;;45.27;;
53267;SDS011;39156;51.176;6.738;2023-05-10T08:17:53;50.03;;;46.30;;
53267;SDS011;39156;51.176;6.738;2023-05-10T08:20:19;48.50;;;44.90;;
53267;SDS011;39156;51.176;6.738;2023-05-10T08:22:45;48.85;;;44.97;;
53267;SDS011;39156;51.176;6.738;2023-05-10T08:25:11;50.65;;;46.40;;
53267;SDS011;39156;51.176;6.738;2023-05-10T08:27:37;51.20;;;46.70;;
53267;SDS011;39156;51.176;6.738;2023-05-10T08:30:03;51.60;;;47.37;;
53267;SDS011;39156;51.176;6.738;2023-05-10T08:32:29;53.25;;;48.85;;
53267;SDS011;39156;51.176;6.738;2023-05-10T08:34:55;52.25;;;48.08;;
53267;SDS011;39156;51.176;6.738;2023-05-10T08:37:22;51.53;;;47.43;;
53267;SDS011;39156;51.176;6.738;2023-05-10T08:39:48;52.72;;;48.40;;
53267;SDS011;39156;51.176;6.738;2023-05-10T08:42:15;53.03;;;48.77;;
53267;SDS011;39156;51.176;6.738;2023-05-10T08:44:45;48.97;;;45.10;;
53267;SDS011;39156;51.176;6.738;2023-05-10T08:47:13;49.20;;;45.40;;
53267;SDS011;39156;51.176;6.738;2023-05-10T08:49:41;51.58;;;47.72;;
53267;SDS011;39156;51.176;6.738;2023-05-10T08:52:08;50.42;;;46.30;;
53267;SDS011;39156;51.176;6.738;2023-05-10T08:54:38;49.17;;;45.42;;
53267;SDS011;39156;51.176;6.738;2023-05-10T08:57:04;52.33;;;47.97;;
53267;SDS011;39156;51.176;6.738;2023-05-10T08:59:30;48.60;;;44.85;;
53267;SDS011;39156;51.176;6.738;2023-05-10T09:01:57;50.23;;;46.13;;
53267;SDS011;39156;51.176;6.738;2023-05-10T09:04:24;49.00;;;45.30;;
53267;SDS011;39156;51.176;6.738;2023-05-10T09:06:50;48.55;;;44.83;;
53267;SDS011;39156;51.176;6.738;2023-05-10T09:09:16;46.37;;;42.97;;
53267;SDS011;39156;51.176;6.738;2023-05-10T09:11:43;46.63;;;42.92;;
53267;SDS011;39156;51.176;6.738;2023-05-10T09:14:09;47.08;;;43.67;;
53267;SDS011;39156;51.176;6.738;2023-05-10T09:16:37;44.40;;;41.40;;
53267;SDS011;39156;51.176;6.738;2023-05-10T09:19:03;45.27;;;42.03;;
53267;SDS011;39156;51.176;6.738;2023-05-10T09:21:29;45.17;;;42.07;;
53267;SDS011;39156;51.176;6.738;2023-05-10T09:23:56;45.72;;;42.53;;
53267;SDS011;39156;51.176;6.738;2023-05-10T09:26:22;44.97;;;41.80;;
53267;SDS011;39156;51.176;6.738;2023-05-10T09:28:55;43.33;;;40.35;;
53267;SDS011;39156;51.176;6.738;2023-05-10T09:31:24;43.28;;;40.35;;
53267;SDS011;39156;51.176;6.738;2023-05-10T09:34:16;41.88;;;39.00;;
53267;SDS011;39156;51.176;6.738;2023-05-10T09:36:50;43.67;;;40.47;;
53267;SDS011;39156;51.176;6.738;2023-05-10T09:39:21;44.72;;;41.83;;
53267;SDS011;39156;51.176;6.738;2023-05-10T09:42:00;42.95;;;39.88;;
53267;SDS011;39156;51.176;6.738;2023-05-10T09:44:29;42.92;;;40.03;;
53267;SDS011;39156;51.176;6.738;2023-05-10T09:46:58;44.72;;;41.63;;
53267;SDS011;39156;51.176;6.738;2023-05-10T09:49:25;45.30;;;42.30;;
53267;SDS011;39156;51.176;6.738;2023-05-10T09:51:59;42.20;;;39.23;;
53267;SDS011;39156;51.176;6.738;2023-05-10T09:54:26;43.35;;;40.45;;
53267;SDS011;39156;51.176;6.738;2023-05-10T09:56:52;41.97;;;39.27;;
53267;SDS011;39156;51.176;6.738;2023-05-10T09:59:17;41.97;;;39.27;;
53267;SDS011;39156;51.176;6.738;2023-05-10T10:01:48;42.25;;;39.45;;
53267;SDS011;39156;51.176;6.738;2023-05-10T10:04:16;41.13;;;38.35;;
53267;SDS011;39156;51.176;6.738;2023-05-10T10:06:42;41.20;;;38.60;;
53267;SDS011;39156;51.176;6.738;2023-05-10T10:09:08;42.17;;;39.27;;
53267;SDS011;39156;51.176;6.738;2023-05-10T10:11:37;44.67;;;41.58;;
53267;SDS011;39156;51.176;6.738;2023-05-10T10:14:04;42.80;;;39.88;;
53267;SDS011;39156;51.176;6.738;2023-05-10T10:16:30;41.97;;;39.17;;
53267;SDS011;39156;51.176;6.738;2023-05-10T10:18:56;41.10;;;38.30;;
53267;SDS011;39156;51.176;6.738;2023-05-10T10:21:23;39.60;;;37.08;;
53267;SDS011;39156;51.176;6.738;2023-05-10T10:23:49;41.70;;;38.65;;
53267;SDS011;39156;51.176;6.738;2023-05-10T10:26:17;39.63;;;36.80;;
53267;SDS011;39156;51.176;6.738;2023-05-10T10:34:51;39.05;;;36.58;;
53267;SDS011;39156;51.176;6.738;2023-05-10T10:37:19;39.33;;;36.63;;
53267;SDS011;39156;51.176;6.738;2023-05-10T10:39:44;40.00;;;37.27;;
53267;SDS011;39156;51.176;6.738;2023-05-10T10:42:14;38.30;;;35.83;;
53267;SDS011;39156;51.176;6.738;2023-05-10T10:45:11;38.95;;;36.35;;
53267;SDS011;39156;51.176;6.738;2023-05-10T10:47:38;39.65;;;37.05;;
53267;SDS011;39156;51.176;6.738;2023-05-10T10:50:04;40.97;;;38.13;;
53267;SDS011;39156;51.176;6.738;2023-05-10T10:52:37;40.25;;;37.50;;
53267;SDS011;39156;51.176;6.738;2023-05-10T10:57:58;40.95;;;38.25;;
53267;SDS011;39156;51.176;6.738;2023-05-10T11:00:37;39.80;;;37.15;;
53267;SDS011;39156;51.176;6.738;2023-05-10T11:03:06;42.15;;;39.35;;
53267;SDS011;39156;51.176;6.738;2023-05-10T11:05:41;40.17;;;37.58;;
53267;SDS011;39156;51.176;6.738;2023-05-10T11:11:07;40.15;;;37.40;;
53267;SDS011;39156;51.176;6.738;2023-05-10T11:16:16;39.85;;;37.15;;
53267;SDS011;39156;51.176;6.738;2023-05-10T11:19:07;39.90;;;37.20;;
53267;SDS011;39156;51.176;6.738;2023-05-10T11:21:43;41.95;;;38.95;;
53267;SDS011;39156;51.176;6.738;2023-05-10T11:24:15;40.95;;;38.25;;
53267;SDS011;39156;51.176;6.738;2023-05-10T11:26:44;39.28;;;36.67;;
53267;SDS011;39156;51.176;6.738;2023-05-10T11:29:10;40.65;;;38.05;;
53267;SDS011;39156;51.176;6.738;2023-05-10T11:31:42;39.78;;;37.08;;
53267;SDS011;39156;51.176;6.738;2023-05-10T11:34:12;38.08;;;35.58;;
53267;SDS011;39156;51.176;6.738;2023-05-10T11:36:59;39.53;;;36.83;;
53267;SDS011;39156;51.176;6.738;2023-05-10T11:39:26;40.13;;;37.53;;
53267;SDS011;39156;51.176;6.738;2023-05-10T11:41:54;39.92;;;37.33;;
53267;SDS011;39156;51.176;6.738;2023-05-10T11:46:46;40.17;;;37.60;;
53267;SDS011;39156;51.176;6.738;2023-05-10T11:49:14;42.57;;;39.77;;
53267;SDS011;39156;51.176;6.738;2023-05-10T11:51:40;42.58;;;39.78;;
53267;SDS011;39156;51.176;6.738;2023-05-10T11:54:08;41.20;;;38.50;;
53267;SDS011;39156;51.176;6.738;2023-05-10T11:56:36;40.15;;;37.10;;
53267;SDS011;39156;51.176;6.738;2023-05-10T11:59:03;40.97;;;38.28;;
53267;SDS011;39156;51.176;6.738;2023-05-10T12:01:30;40.87;;;38.20;;
53267;SDS011;39156;51.176;6.738;2023-05-10T12:03:56;40.63;;;37.78;;
53267;SDS011;39156;51.176;6.738;2023-05-10T12:06:26;40.88;;;38.17;;
53267;SDS011;39156;51.176;6.738;2023-05-10T12:08:57;40.72;;;38.13;;
53267;SDS011;39156;51.176;6.738;2023-05-10T12:11:27;40.83;;;38.22;;
53267;SDS011;39156;51.176;6.738;2023-05-10T12:13:55;42.28;;;39.55;;
53267;SDS011;39156;51.176;6.738;2023-05-10T12:16:28;41.55;;;38.85;;
53267;SDS011;39156;51.176;6.738;2023-05-10T12:18:57;41.53;;;38.63;;
53267;SDS011;39156;51.176;6.738;2023-05-10T12:21:25;42.20;;;39.30;;
53267;SDS011;39156;51.176;6.738;2023-05-10T12:23:54;42.30;;;39.35;;
53267;SDS011;39156;51.176;6.738;2023-05-10T12:26:25;43.72;;;40.78;;
53267;SDS011;39156;51.176;6.738;2023-05-10T12:28:54;44.10;;;40.92;;
53267;SDS011;39156;51.176;6.738;2023-05-10T12:33:46;46.45;;;43.33;;
53267;SDS011;39156;51.176;6.738;2023-05-10T12:36:14;45.75;;;42.20;;
53267;SDS011;39156;51.176;6.738;2023-05-10T12:38:42;44.22;;;41.13;;
53267;SDS011;39156;51.176;6.738;2023-05-10T12:41:15;45.78;;;42.60;;
53267;SDS011;39156;51.176;6.738;2023-05-10T12:43:42;44.58;;;41.55;;
53267;SDS011;39156;51.176;6.738;2023-05-10T12:46:09;46.17;;;43.08;;
53267;SDS011;39156;51.176;6.738;2023-05-10T12:48:41;47.13;;;43.90;;
53267;SDS011;39156;51.176;6.738;2023-05-10T12:51:09;43.83;;;40.83;;
53267;SDS011;39156;51.176;6.738;2023-05-10T12:53:37;44.90;;;41.80;;
53267;SDS011;39156;51.176;6.738;2023-05-10T12:58:29;45.70;;;42.70;;
53267;SDS011;39156;51.176;6.738;2023-05-10T13:00:55;45.50;;;42.13;;
53267;SDS011;39156;51.176;6.738;2023-05-10T13:03:21;44.13;;;41.08;;
53267;SDS011;39156;51.176;6.738;2023-05-10T13:05:47;44.67;;;41.67;;
53267;SDS011;39156;51.176;6.738;2023-05-10T13:08:13;45.80;;;42.80;;
53267;SDS011;39156;51.176;6.738;2023-05-10T13:10:39;44.22;;;41.22;;
53267;SDS011;39156;51.176;6.738;2023-05-10T13:13:05;44.33;;;41.30;;
53267;SDS011;39156;51.176;6.738;2023-05-10T13:15:32;43.63;;;40.83;;
53267;SDS011;39156;51.176;6.738;2023-05-10T13:17:58;41.30;;;38.60;;
53267;SDS011;39156;51.176;6.738;2023-05-10T13:20:24;41.17;;;38.37;;
53267;SDS011;39156;51.176;6.738;2023-05-10T13:22:50;41.00;;;38.40;;
53267;SDS011;39156;51.176;6.738;2023-05-10T13:25:16;39.35;;;36.75;;
53267;SDS011;39156;51.176;6.738;2023-05-10T13:27:41;40.67;;;38.07;;
53267;SDS011;39156;51.176;6.738;2023-05-10T13:30:08;38.40;;;36.10;;
53267;SDS011;39156;51.176;6.738;2023-05-10T13:32:36;38.60;;;36.20;;
53267;SDS011;39156;51.176;6.738;2023-05-10T13:35:02;39.67;;;37.27;;
53267;SDS011;39156;51.176;6.738;2023-05-10T13:37:28;39.30;;;36.90;;
53267;SDS011;39156;51.176;6.738;2023-05-10T13:42:21;39.03;;;36.63;;
53267;SDS011;39156;51.176;6.738;2023-05-10T13:44:48;40.35;;;37.60;;
53267;SDS011;39156;51.176;6.738;2023-05-10T13:49:40;38.55;;;36.15;;
53267;SDS011;39156;51.176;6.738;2023-05-10T13:52:06;40.00;;;37.20;;
53267;SDS011;39156;51.176;6.738;2023-05-10T13:54:35;40.73;;;38.07;;
53267;SDS011;39156;51.176;6.738;2023-05-10T13:57:02;38.72;;;36.33;;
53267;SDS011;39156;51.176;6.738;2023-05-10T13:59:28;39.33;;;36.73;;
53267;SDS011;39156;51.176;6.738;2023-05-10T14:01:54;39.65;;;37.15;;
53267;SDS011;39156;51.176;6.738;2023-05-10T14:04:19;39.30;;;36.80;;
53267;SDS011;39156;51.176;6.738;2023-05-10T14:06:45;39.50;;;36.93;;
53267;SDS011;39156;51.176;6.738;2023-05-10T14:09:11;38.40;;;36.10;;
53267;SDS011;39156;51.176;6.738;2023-05-10T14:11:36;39.23;;;36.73;;
53267;SDS011;39156;51.176;6.738;2023-05-10T14:14:06;38.08;;;35.72;;
53267;SDS011;39156;51.176;6.738;2023-05-10T14:16:32;37.40;;;35.20;;
53267;SDS011;39156;51.176;6.738;2023-05-10T14:18:58;36.57;;;34.27;;
53267;SDS011;39156;51.176;6.738;2023-05-10T14:21:23;35.83;;;33.73;;
53267;SDS011;39156;51.176;6.738;2023-05-10T14:23:49;37.20;;;35.00;;
53267;SDS011;39156;51.176;6.738;2023-05-10T14:26:15;38.30;;;36.00;;
53267;SDS011;39156;51.176;6.738;2023-05-10T14:28:41;36.35;;;34.15;;
53267;SDS011;39156;51.176;6.738;2023-05-10T14:31:06;35.53;;;33.47;;
53267;SDS011;39156;51.176;6.738;2023-05-10T14:33:32;36.33;;;34.23;;
53267;SDS011;39156;51.176;6.738;2023-05-10T14:35:58;35.93;;;33.73;;
53267;SDS011;39156;51.176;6.738;2023-05-10T14:40:51;37.60;;;35.40;;
53267;SDS011;39156;51.176;6.738;2023-05-10T14:43:17;35.80;;;33.70;;
53267;SDS011;39156;51.176;6.738;2023-05-10T14:45:42;37.07;;;34.87;;
53267;SDS011;39156;51.176;6.738;2023-05-10T14:48:09;35.47;;;33.47;;
53267;SDS011;39156;51.176;6.738;2023-05-10T14:50:40;34.80;;;32.90;;
53267;SDS011;39156;51.176;6.738;2023-05-10T14:53:06;35.95;;;33.85;;
53267;SDS011;39156;51.176;6.738;2023-05-10T14:55:31;34.30;;;32.30;;
53267;SDS011;39156;51.176;6.738;2023-05-10T14:57:57;35.15;;;32.95;;
53267;SDS011;39156;51.176;6.738;2023-05-10T15:00:23;34.47;;;32.47;;
53267;SDS011;39156;51.176;6.738;2023-05-10T15:02:49;34.17;;;32.13;;
53267;SDS011;39156;51.176;6.738;2023-05-10T15:05:14;35.00;;;33.00;;
53267;SDS011;39156;51.176;6.738;2023-05-10T15:07:40;34.10;;;32.20;;
53267;SDS011;39156;51.176;6.738;2023-05-10T15:10:08;34.05;;;31.95;;
53267;SDS011;39156;51.176;6.738;2023-05-10T15:12:35;34.75;;;32.72;;
53267;SDS011;39156;51.176;6.738;2023-05-10T15:15:01;33.77;;;31.87;;
53267;SDS011;39156;51.176;6.738;2023-05-10T15:17:27;34.72;;;32.65;;
53267;SDS011;39156;51.176;6.738;2023-05-10T15:19:52;35.63;;;33.43;;
53267;SDS011;39156;51.176;6.738;2023-05-10T15:22:18;34.43;;;32.23;;